createdAt,value
2022-08-24T00:00:23.902Z,5.20
2022-08-24T00:05:26.007Z,5.88
2022-08-24T00:10:27.618Z,5.80
2022-08-24T00:15:29.229Z,6.82
2022-08-24T00:20:30.868Z,9.32
2022-08-24T00:25:33.894Z,7.60
2022-08-24T00:30:35.862Z,7.45
2022-08-24T00:35:37.619Z,5.80
2022-08-24T00:40:42.365Z,8.15
2022-08-24T00:45:59.766Z,7.63
2022-08-24T00:51:08.535Z,7.93
2022-08-24T00:56:20.468Z,8.30
2022-08-24T01:01:22.639Z,9.57
2022-08-24T01:06:25.412Z,6.93
2022-08-24T01:11:34.003Z,7.88
2022-08-24T01:16:36.646Z,5.38
2022-08-24T01:21:47.896Z,6.82
2022-08-24T01:26:50.977Z,5.95
2022-08-24T01:31:54.102Z,6.10
2022-08-24T01:36:57.291Z,7.28
2022-08-24T01:42:00.041Z,8.77
2022-08-24T01:47:07.408Z,12.20
2022-08-24T01:52:13.933Z,9.02
2022-08-24T01:57:16.070Z,8.70
2022-08-24T02:02:27.275Z,8.32
2022-08-24T02:07:29.102Z,9.73
2022-08-24T02:12:30.714Z,7.70
2022-08-24T02:17:32.826Z,6.43
2022-08-24T02:22:34.468Z,8.63
2022-08-24T02:27:36.116Z,10.93
2022-08-24T02:32:38.084Z,7.20
2022-08-24T02:37:43.645Z,11.05
2022-08-24T02:42:48.527Z,8.18
2022-08-24T02:47:50.622Z,12.98
2022-08-24T02:52:53.511Z,7.93
2022-08-24T02:57:56.572Z,9.48
2022-08-24T03:02:58.406Z,7.22
2022-08-24T03:08:00.422Z,6.55
2022-08-24T03:13:03.103Z,8.35
2022-08-24T03:18:05.207Z,8.82
2022-08-24T03:23:06.867Z,5.80
2022-08-24T03:28:11.183Z,7.72
2022-08-24T03:33:14.329Z,13.07
2022-08-24T03:38:16.418Z,10.13
2022-08-24T03:43:18.369Z,7.60
2022-08-24T03:48:20.176Z,8.45
2022-08-24T03:53:22.219Z,8.13
2022-08-24T03:58:24.191Z,11.35
2022-08-24T04:03:26.862Z,9.75
2022-08-24T04:08:35.742Z,10.35
2022-08-24T04:13:37.579Z,8.23
2022-08-24T04:18:41.063Z,10.70
2022-08-24T04:23:47.528Z,10.80
2022-08-24T04:28:51.064Z,9.35
2022-08-24T04:33:54.200Z,13.27
2022-08-24T04:38:56.944Z,11.18
2022-08-24T04:44:28.036Z,11.07
2022-08-24T04:49:36.329Z,10.30
2022-08-24T04:54:38.037Z,9.25
2022-08-24T04:59:50.844Z,7.68
2022-08-24T05:04:52.445Z,10.05
2022-08-24T05:09:54.975Z,9.20
2022-08-24T05:15:00.272Z,7.22
2022-08-24T05:20:04.570Z,5.97
2022-08-24T05:25:06.977Z,6.07
2022-08-24T05:30:12.035Z,7.63
2022-08-24T05:35:14.095Z,8.63
2022-08-24T05:40:19.503Z,14.73
2022-08-24T05:45:24.965Z,8.45
2022-08-24T05:50:26.782Z,15.95
2022-08-24T05:55:28.421Z,11.55
2022-08-24T06:00:30.648Z,11.00
2022-08-24T06:05:33.206Z,16.40
2022-08-24T06:10:43.488Z,15.25
2022-08-24T06:15:59.444Z,26.45
2022-08-24T06:21:11.345Z,20.67
2022-08-24T06:26:18.280Z,16.40
2022-08-24T06:31:22.825Z,15.88
2022-08-24T06:36:27.408Z,5.25
2022-08-24T06:41:29.399Z,6.40
2022-08-24T06:46:33.038Z,6.30
2022-08-24T06:51:35.318Z,5.53
2022-08-24T06:56:38.347Z,10.05
2022-08-24T07:01:40.190Z,7.03
2022-08-24T07:06:42.066Z,6.85
2022-08-24T07:11:44.482Z,7.00
2022-08-24T07:16:46.161Z,4.93
2022-08-24T07:21:48.406Z,5.72
2022-08-24T07:26:50.068Z,7.57
2022-08-24T07:31:52.266Z,6.63
2022-08-24T07:37:07.354Z,4.88
2022-08-24T07:42:15.838Z,7.50
2022-08-24T07:47:37.711Z,7.93
2022-08-24T07:52:48.651Z,7.47
2022-08-24T07:57:50.908Z,8.07
2022-08-24T08:02:53.232Z,6.38
2022-08-24T08:07:55.539Z,6.45
2022-08-24T08:12:57.533Z,6.93
2022-08-24T08:17:59.595Z,5.05
2022-08-24T08:23:01.921Z,7.93
2022-08-24T08:28:33.106Z,7.32
2022-08-24T08:33:37.294Z,6.22
2022-08-24T08:38:39.900Z,4.05
2022-08-24T08:43:45.623Z,4.53
2022-08-24T08:48:59.154Z,6.05
2022-08-24T08:54:33.172Z,9.40
2022-08-24T08:59:54.822Z,6.90
2022-08-24T09:05:15.152Z,6.38
2022-08-24T09:10:22.852Z,6.43
2022-08-24T09:15:43.004Z,5.35
2022-08-24T09:20:54.175Z,7.43
2022-08-24T09:26:08.953Z,7.00
2022-08-24T09:37:00.672Z,7.32
2022-08-24T09:42:21.009Z,4.55
2022-08-24T09:47:46.492Z,7.28
2022-08-24T09:52:48.212Z,8.27
2022-08-24T09:58:27.068Z,4.95
2022-08-24T10:03:53.660Z,5.15
2022-08-24T10:09:04.551Z,5.60
2022-08-24T10:14:30.898Z,5.55
2022-08-24T10:20:20.685Z,5.57
2022-08-24T10:25:40.304Z,4.68
2022-08-24T10:30:50.378Z,4.82
2022-08-24T10:35:57.693Z,6.35
2022-08-24T10:41:14.423Z,5.93
2022-08-24T10:46:35.962Z,4.15
2022-08-24T10:51:59.469Z,4.10
2022-08-24T10:57:22.449Z,4.28
2022-08-24T11:02:32.168Z,3.40
2022-08-24T11:07:35.371Z,9.00
2022-08-24T11:12:39.019Z,4.60
2022-08-24T11:18:03.123Z,5.82
2022-08-24T11:23:29.625Z,6.43
2022-08-24T11:28:39.005Z,3.83
2022-08-24T11:33:50.249Z,5.85
2022-08-24T11:39:17.320Z,5.30
2022-08-24T11:44:32.571Z,3.65
2022-08-24T11:49:54.998Z,3.45
2022-08-24T11:55:10.363Z,2.88
2022-08-24T12:00:14.705Z,2.70
2022-08-24T12:05:35.617Z,5.90
2022-08-24T12:11:03.339Z,6.20
2022-08-24T12:16:16.858Z,5.50
2022-08-24T12:21:23.897Z,3.03
2022-08-24T12:26:35.589Z,7.85
2022-08-24T12:31:48.433Z,2.83
2022-08-24T12:37:16.358Z,2.93
2022-08-24T12:42:33.407Z,4.28
2022-08-24T12:47:49.776Z,3.20
2022-08-24T12:53:15.153Z,4.30
2022-08-24T12:58:35.060Z,9.13
2022-08-24T13:03:40.601Z,2.25
2022-08-24T13:08:46.171Z,1.90
2022-08-24T13:14:15.226Z,3.55
2022-08-24T13:19:22.921Z,3.65
2022-08-24T13:24:27.945Z,2.67
2022-08-24T13:29:33.759Z,2.83
2022-08-24T13:34:43.667Z,4.00
2022-08-24T13:40:00.846Z,2.90
2022-08-24T13:45:17.744Z,3.88
2022-08-24T13:50:31.339Z,3.90
2022-08-24T13:55:44.949Z,3.97
2022-08-24T14:01:01.568Z,2.92
2022-08-24T14:06:25.133Z,3.63
2022-08-24T14:11:35.700Z,2.65
2022-08-24T14:17:07.069Z,2.58
2022-08-24T14:22:51.710Z,3.83
2022-08-24T14:27:59.381Z,3.50
2022-08-24T14:33:01.069Z,3.47
2022-08-24T14:38:20.912Z,4.05
2022-08-24T14:43:34.743Z,4.15
2022-08-24T14:49:00.897Z,3.55
2022-08-24T14:54:40.301Z,3.38
2022-08-24T15:00:06.562Z,2.25
2022-08-24T15:05:35.389Z,3.75
2022-08-24T15:10:44.119Z,4.63
2022-08-24T15:16:13.842Z,4.07
2022-08-24T15:21:37.393Z,2.53
2022-08-24T15:27:08.073Z,3.50
2022-08-24T15:32:12.485Z,4.47
2022-08-24T15:37:30.812Z,5.82
2022-08-24T15:42:36.798Z,5.05
2022-08-24T15:47:40.986Z,2.35
2022-08-24T15:52:53.817Z,3.95
2022-08-24T15:57:56.580Z,4.10
2022-08-24T16:03:21.021Z,4.15
2022-08-24T16:08:23.782Z,3.40
2022-08-24T16:13:29.837Z,3.72
2022-08-24T16:18:52.282Z,4.05
2022-08-24T16:24:06.469Z,2.83
2022-08-24T16:29:08.110Z,4.78
2022-08-24T16:34:21.574Z,3.42
2022-08-24T16:39:23.740Z,6.40
2022-08-24T16:44:31.636Z,4.03
2022-08-24T16:49:33.374Z,2.78
2022-08-24T16:54:35.123Z,3.95
2022-08-24T16:59:37.011Z,2.95
2022-08-24T17:04:39.418Z,3.30
2022-08-24T17:09:44.333Z,2.78
2022-08-24T17:14:46.244Z,3.08
2022-08-24T17:19:52.876Z,3.22
2022-08-24T17:24:54.664Z,4.70
2022-08-24T17:29:56.584Z,2.97
2022-08-24T17:34:58.506Z,6.13
2022-08-24T17:40:00.163Z,3.13
2022-08-24T17:45:02.043Z,3.90
2022-08-24T17:50:06.372Z,4.68
2022-08-24T17:55:11.370Z,3.28
2022-08-24T18:00:14.295Z,6.07
2022-08-24T18:05:16.101Z,3.88
2022-08-24T18:10:21.864Z,5.60
2022-08-24T18:15:34.610Z,6.90
2022-08-24T18:20:40.454Z,5.70
2022-08-24T18:25:49.456Z,5.03
2022-08-24T18:30:51.894Z,5.82
2022-08-24T18:35:53.577Z,5.32
2022-08-24T18:41:01.544Z,4.55
2022-08-24T18:46:03.573Z,5.57
2022-08-24T18:51:05.816Z,6.10
2022-08-24T18:56:12.268Z,6.22
2022-08-24T19:01:14.713Z,4.80
2022-08-24T19:06:16.756Z,4.75
2022-08-24T19:11:23.171Z,7.18
2022-08-24T19:16:24.885Z,5.13
2022-08-24T19:21:29.600Z,7.45
2022-08-24T19:26:33.547Z,5.35
2022-08-24T19:31:35.303Z,4.70
2022-08-24T19:36:37.136Z,5.07
2022-08-24T19:41:43.015Z,5.35
2022-08-24T19:46:47.837Z,5.82
2022-08-24T19:51:51.050Z,4.63
2022-08-24T19:56:53.585Z,6.10
2022-08-24T20:01:55.283Z,6.50
2022-08-24T20:06:57.694Z,7.45
2022-08-24T20:11:59.333Z,7.00
2022-08-24T20:17:01.531Z,7.88
2022-08-24T20:22:13.064Z,5.15
2022-08-24T20:27:21.218Z,4.05
2022-08-24T20:32:23.581Z,6.75
2022-08-24T20:37:28.244Z,7.15
2022-08-24T20:42:30.461Z,4.55
2022-08-24T20:47:32.219Z,5.25
2022-08-24T20:52:34.002Z,4.15
2022-08-24T20:57:35.766Z,4.07
2022-08-24T21:02:37.424Z,6.18
2022-08-24T21:07:39.662Z,5.28
2022-08-24T21:12:41.277Z,4.63
2022-08-24T21:17:45.893Z,5.90
2022-08-24T21:22:47.568Z,4.20
2022-08-24T21:27:49.385Z,4.60
2022-08-24T21:32:51.080Z,4.40
2022-08-24T21:37:53.069Z,4.05
2022-08-24T21:42:55.753Z,5.30
2022-08-24T21:47:57.434Z,4.07
2022-08-24T21:52:59.709Z,3.50
2022-08-24T21:58:01.410Z,5.85
2022-08-24T22:03:05.393Z,6.53
2022-08-24T22:08:07.117Z,3.75
2022-08-24T22:13:08.879Z,7.05
2022-08-24T22:18:10.737Z,6.57
2022-08-24T22:23:12.364Z,5.00
2022-08-24T22:28:13.920Z,6.97
2022-08-24T22:33:15.966Z,3.55
2022-08-24T22:38:18.644Z,4.07
2022-08-24T22:43:23.245Z,3.85
2022-08-24T22:48:26.610Z,8.30
2022-08-24T22:53:28.574Z,6.43
2022-08-24T22:58:30.279Z,3.60
2022-08-24T23:03:31.961Z,6.30
2022-08-24T23:08:33.658Z,4.70
2022-08-24T23:13:36.173Z,4.20
2022-08-24T23:18:38.879Z,4.88
2022-08-24T23:23:40.766Z,4.78
2022-08-24T23:28:43.139Z,4.45
2022-08-24T23:33:46.463Z,5.55
2022-08-24T23:38:50.196Z,4.68
2022-08-24T23:43:53.591Z,6.10
2022-08-24T23:48:56.719Z,3.30
2022-08-24T23:54:00.682Z,3.72
2022-08-24T23:59:08.973Z,5.05
